createdAt,value
2022-10-12T04:16:40.410Z,74.12
2022-10-12T04:19:06.848Z,73.85
2022-10-12T04:21:33.316Z,73.13
2022-10-12T04:24:00.809Z,72.79
2022-10-12T04:26:27.258Z,73.28
2022-10-12T04:28:54.171Z,72.53
2022-10-12T04:31:20.828Z,73.76
2022-10-12T04:33:53.111Z,73.75
2022-10-12T04:36:19.610Z,74.17
2022-10-12T04:38:49.402Z,73.90
2022-10-12T04:41:16.105Z,74.08
2022-10-12T04:43:50.626Z,74.02
2022-10-12T04:46:17.131Z,72.85
2022-10-12T04:48:49.053Z,72.90
2022-10-12T04:52:19.391Z,71.71
2022-10-12T04:54:45.977Z,71.73
2022-10-12T04:57:12.491Z,71.74
2022-10-12T04:59:39.260Z,70.95
2022-10-12T05:02:06.309Z,70.03
2022-10-12T05:04:32.895Z,70.89
2022-10-12T05:07:25.021Z,70.67
2022-10-12T05:09:51.446Z,71.25
2022-10-12T05:12:17.882Z,71.54
2022-10-12T05:14:44.470Z,71.93
2022-10-12T05:17:11.501Z,71.85
2022-10-12T05:19:38.072Z,71.29
2022-10-12T05:22:04.507Z,71.39
2022-10-12T05:24:31.107Z,71.67
2022-10-12T05:26:57.545Z,71.52
2022-10-12T05:29:23.988Z,72.34
2022-10-12T05:31:50.661Z,73.21
2022-10-12T05:34:17.093Z,72.47
2022-10-12T05:36:43.522Z,73.16
2022-10-12T05:39:09.995Z,73.14
2022-10-12T05:41:36.525Z,73.53
2022-10-12T05:44:02.998Z,74.25
2022-10-12T05:46:29.422Z,74.44
2022-10-12T05:48:55.896Z,74.92
2022-10-12T05:51:26.536Z,74.45
2022-10-12T05:53:55.113Z,73.57
2022-10-12T05:56:21.540Z,74.20
2022-10-12T05:58:48.091Z,73.72
2022-10-12T06:01:14.657Z,73.94
2022-10-12T06:03:41.135Z,73.12
2022-10-12T06:06:15.637Z,72.69
2022-10-12T06:08:42.111Z,72.09
2022-10-12T06:17:57.995Z,72.79
2022-10-12T06:21:08.676Z,73.29
2022-10-12T06:24:22.478Z,72.77
2022-10-12T06:26:49.577Z,73.16
2022-10-12T06:29:16.133Z,72.62
2022-10-12T06:32:13.487Z,72.39
2022-10-12T06:34:40.012Z,73.40
2022-10-12T06:37:49.149Z,72.90
2022-10-12T06:40:17.397Z,73.24
2022-10-12T06:42:43.911Z,72.78
2022-10-12T06:45:11.892Z,73.15
2022-10-12T06:47:38.559Z,74.02
2022-10-12T06:50:21.590Z,72.67
2022-10-12T06:52:48.092Z,73.00
2022-10-12T06:55:14.629Z,73.46
2022-10-12T06:57:41.185Z,73.37
2022-10-12T07:00:08.784Z,72.74
2022-10-12T07:02:36.015Z,72.63
2022-10-12T07:05:03.407Z,72.75
2022-10-12T07:07:34.372Z,72.63
2022-10-12T07:10:01.218Z,72.56
2022-10-12T07:12:27.877Z,72.69
2022-10-12T07:14:58.371Z,73.32
2022-10-12T07:17:24.818Z,72.94
2022-10-12T07:19:56.947Z,73.38
2022-10-12T07:22:23.514Z,73.34
2022-10-12T07:24:56.659Z,72.58
2022-10-12T07:27:23.664Z,72.31
2022-10-12T07:29:50.911Z,72.02
2022-10-12T07:32:17.440Z,71.80
2022-10-12T07:34:46.103Z,73.04
2022-10-12T07:37:13.272Z,72.94
2022-10-12T07:39:41.424Z,73.25
2022-10-12T07:46:32.344Z,72.55
2022-10-12T07:49:04.944Z,72.13
2022-10-12T07:51:31.407Z,72.52
2022-10-12T07:54:00.156Z,72.11
2022-10-12T07:56:27.053Z,72.37
2022-10-12T07:58:56.222Z,72.29
2022-10-12T08:01:24.953Z,72.28
2022-10-12T08:03:56.323Z,72.77
2022-10-12T08:06:27.521Z,72.81
2022-10-12T08:08:54.267Z,73.37
2022-10-12T08:11:21.941Z,73.25
2022-10-12T08:13:48.873Z,73.36
2022-10-12T08:16:18.825Z,72.81
2022-10-12T08:18:45.489Z,71.88
2022-10-12T08:21:37.694Z,71.87
2022-10-12T08:24:04.300Z,72.44
2022-10-12T08:26:30.914Z,72.06
2022-10-12T08:28:57.530Z,71.44
2022-10-12T08:31:24.033Z,70.92
2022-10-12T08:33:53.803Z,70.59
2022-10-12T08:36:20.402Z,70.10
2022-10-12T08:38:53.849Z,69.62
2022-10-12T08:41:28.877Z,69.85
2022-10-12T08:44:20.833Z,69.87
2022-10-12T08:47:21.167Z,69.66
2022-10-12T08:49:50.550Z,69.68
2022-10-12T08:52:31.932Z,69.35
2022-10-12T08:55:07.156Z,68.92
2022-10-12T08:57:36.488Z,68.71
2022-10-12T09:00:04.247Z,68.06
2022-10-12T09:03:00.428Z,68.25
2022-10-12T09:05:26.803Z,68.16
2022-10-12T09:08:00.344Z,67.61
2022-10-12T09:10:37.998Z,67.49
2022-10-12T09:17:04.757Z,67.08
2022-10-12T09:19:36.882Z,66.70
2022-10-12T09:22:05.998Z,65.96
2022-10-12T09:24:36.781Z,66.08
2022-10-12T09:27:15.226Z,65.32
2022-10-12T09:29:46.564Z,65.08
2022-10-12T09:32:50.667Z,64.75
2022-10-12T09:35:17.578Z,64.20
2022-10-12T09:37:52.471Z,63.86
2022-10-12T09:40:33.085Z,63.18
2022-10-12T09:43:02.447Z,63.79
2022-10-12T09:45:32.912Z,62.80
2022-10-12T09:48:19.041Z,62.92
2022-10-12T09:51:00.330Z,62.79
2022-10-12T09:53:32.984Z,62.35
2022-10-12T09:56:09.707Z,61.37
2022-10-12T09:58:58.622Z,60.90
2022-10-12T10:01:29.992Z,59.87
2022-10-12T10:04:23.138Z,59.65
2022-10-12T10:06:50.727Z,59.16
2022-10-12T10:09:32.792Z,58.38
2022-10-12T10:12:13.657Z,58.88
2022-10-12T10:14:44.006Z,58.56
2022-10-12T10:17:20.364Z,57.89
2022-10-12T10:19:54.870Z,57.13
2022-10-12T10:22:23.588Z,56.82
2022-10-12T10:25:01.153Z,56.93
2022-10-12T10:27:39.829Z,57.24
2022-10-12T10:30:29.485Z,57.27
2022-10-12T10:33:14.606Z,56.94
2022-10-12T10:35:41.778Z,56.77
2022-10-12T10:38:15.733Z,55.47
2022-10-12T10:40:42.071Z,54.55
2022-10-12T10:43:21.497Z,54.52
2022-10-12T10:45:53.159Z,54.45
2022-10-12T10:48:26.827Z,53.46
2022-10-12T10:51:00.904Z,52.24
2022-10-12T10:53:32.907Z,52.54
2022-10-12T10:56:14.247Z,52.09
2022-10-12T10:58:50.091Z,52.11
2022-10-12T11:01:22.872Z,52.03
2022-10-12T11:03:56.478Z,51.16
2022-10-12T11:06:42.545Z,50.73
2022-10-12T11:09:20.376Z,50.73
2022-10-12T11:11:58.483Z,50.73
2022-10-12T11:14:45.813Z,50.81
2022-10-12T11:17:32.975Z,49.50
2022-10-12T11:20:25.233Z,47.20
2022-10-12T11:23:01.629Z,47.27
2022-10-12T11:25:39.886Z,46.53
2022-10-12T11:28:08.050Z,46.18
2022-10-12T11:30:47.321Z,45.69
2022-10-12T11:33:26.235Z,46.19
2022-10-12T11:35:54.741Z,44.84
2022-10-12T11:38:32.751Z,42.96
2022-10-12T11:41:34.356Z,41.48
2022-10-12T11:44:05.958Z,38.92
2022-10-12T11:46:40.107Z,37.23
2022-10-12T11:49:32.426Z,36.91
2022-10-12T11:52:05.700Z,35.08
2022-10-12T11:54:35.075Z,33.68
2022-10-12T11:57:26.525Z,33.73
2022-10-12T11:59:59.712Z,34.04
2022-10-12T12:02:41.190Z,32.87
2022-10-12T12:05:16.748Z,31.00
2022-10-12T12:07:54.521Z,31.67
2022-10-12T12:10:37.051Z,30.46
2022-10-12T12:13:13.057Z,32.00
2022-10-12T12:15:41.379Z,32.14
2022-10-12T12:18:13.028Z,30.98
2022-10-12T12:20:42.730Z,28.69
2022-10-12T12:23:32.987Z,26.90
2022-10-12T12:26:20.145Z,26.51
2022-10-12T12:28:48.607Z,25.46
2022-10-12T12:31:24.100Z,25.68
2022-10-12T12:34:06.889Z,27.50
2022-10-12T12:36:33.205Z,27.24
2022-10-12T12:39:01.559Z,26.36
2022-10-12T12:41:55.179Z,25.58
2022-10-12T12:44:33.601Z,24.10
2022-10-12T12:46:59.954Z,23.72
2022-10-12T12:49:45.463Z,23.67
2022-10-12T12:52:24.840Z,22.87
2022-10-12T12:54:57.400Z,22.53
2022-10-12T12:57:35.227Z,22.05
2022-10-12T13:00:06.503Z,22.57
2022-10-12T13:03:02.699Z,23.92
2022-10-12T13:06:06.412Z,26.02
2022-10-12T13:09:02.386Z,26.42
2022-10-12T13:11:40.316Z,25.81
2022-10-12T13:14:13.670Z,26.70
2022-10-12T13:19:44.353Z,27.20
2022-10-12T13:22:26.152Z,27.48
2022-10-12T13:24:59.634Z,26.26
2022-10-12T13:28:35.501Z,26.35
2022-10-12T13:31:16.512Z,28.69
2022-10-12T13:33:55.657Z,30.00
2022-10-12T13:36:28.436Z,33.01
2022-10-12T13:38:59.817Z,34.11
2022-10-12T13:41:37.136Z,34.82
2022-10-12T13:44:07.246Z,36.88
2022-10-12T13:47:01.192Z,35.85
2022-10-12T13:49:29.416Z,39.88
2022-10-12T13:52:00.419Z,40.30
2022-10-12T13:54:39.716Z,41.47
2022-10-12T13:57:31.756Z,44.32
2022-10-12T14:00:02.879Z,46.35
2022-10-12T14:02:31.856Z,46.72
2022-10-12T14:05:02.898Z,47.91
2022-10-12T14:07:37.480Z,48.28
2022-10-12T14:10:31.308Z,49.67
2022-10-12T14:12:58.516Z,49.33
2022-10-12T14:15:27.739Z,50.24
2022-10-12T14:17:54.874Z,51.91
2022-10-12T14:20:38.512Z,52.09
2022-10-12T14:23:18.683Z,52.16
2022-10-12T14:25:55.742Z,52.42
2022-10-12T14:28:37.654Z,52.64
2022-10-12T14:31:04.242Z,51.74
2022-10-12T14:33:32.577Z,51.06
2022-10-12T14:36:20.845Z,50.94
2022-10-12T14:39:13.478Z,51.96
2022-10-12T14:41:52.440Z,51.88
2022-10-12T14:44:21.935Z,51.63
2022-10-12T14:47:01.435Z,51.39
2022-10-12T14:49:46.552Z,52.81
2022-10-12T14:52:23.412Z,52.40
2022-10-12T14:54:58.348Z,53.30
2022-10-12T14:57:28.020Z,52.66
2022-10-12T14:59:59.834Z,54.72
2022-10-12T15:02:31.793Z,54.58
2022-10-12T15:04:59.432Z,54.08
2022-10-12T15:07:32.727Z,54.67
2022-10-12T15:10:08.360Z,53.68
2022-10-12T15:12:35.208Z,53.22
2022-10-12T15:15:14.963Z,54.58
2022-10-12T15:17:41.538Z,54.36
2022-10-12T15:20:09.382Z,55.00
2022-10-12T15:22:35.841Z,54.71
2022-10-12T15:25:02.343Z,54.84
2022-10-12T15:27:37.897Z,54.99
2022-10-12T15:30:04.825Z,55.29
2022-10-12T15:32:33.553Z,54.87
2022-10-12T15:35:00.248Z,56.06
2022-10-12T15:37:31.689Z,55.24
2022-10-12T15:39:58.428Z,54.57
2022-10-12T15:42:25.261Z,53.98
2022-10-12T15:45:01.550Z,54.57
2022-10-12T15:47:35.513Z,55.30
2022-10-12T15:50:02.064Z,55.32
2022-10-12T15:52:28.526Z,55.67
2022-10-12T15:54:55.923Z,56.15
2022-10-12T15:57:25.578Z,58.04
2022-10-12T15:59:53.344Z,58.36
2022-10-12T16:02:27.185Z,58.40
2022-10-12T16:04:53.572Z,57.95
2022-10-12T16:07:20.065Z,59.15
2022-10-12T16:09:46.514Z,59.56
2022-10-12T16:12:13.034Z,59.65
2022-10-12T16:14:39.736Z,59.66
2022-10-12T16:17:06.211Z,59.26
2022-10-12T16:19:36.490Z,58.79
2022-10-12T16:22:04.784Z,58.89
2022-10-12T16:25:02.047Z,59.12
2022-10-12T16:27:29.421Z,60.18
2022-10-12T16:29:55.980Z,60.38
2022-10-12T16:32:22.401Z,59.60
2022-10-12T16:34:48.816Z,60.13
2022-10-12T16:37:15.639Z,60.49
2022-10-12T16:39:42.280Z,60.70
2022-10-12T16:42:08.762Z,60.89
2022-10-12T16:44:35.264Z,60.92
2022-10-12T16:47:08.077Z,60.92
2022-10-12T16:49:37.670Z,60.71
2022-10-12T16:52:09.973Z,61.21
2022-10-12T16:54:53.422Z,61.11
2022-10-12T16:57:30.803Z,61.13
2022-10-12T17:00:15.415Z,61.10
2022-10-12T17:03:03.855Z,61.68
2022-10-12T17:05:30.733Z,61.78
2022-10-12T17:07:59.047Z,62.34
2022-10-12T17:10:45.437Z,62.73
2022-10-12T17:13:36.069Z,62.67
2022-10-12T17:16:29.159Z,63.56
2022-10-12T17:19:11.637Z,63.94
2022-10-12T17:21:43.990Z,64.66
2022-10-12T17:24:16.741Z,64.64
2022-10-12T17:26:46.630Z,65.34
2022-10-12T17:29:31.648Z,65.26
2022-10-12T17:32:09.436Z,64.84
2022-10-12T17:34:48.055Z,64.23
2022-10-12T17:37:21.000Z,63.88
2022-10-12T17:39:58.207Z,64.45
2022-10-12T17:42:38.571Z,64.90
2022-10-12T17:45:22.942Z,64.90
2022-10-12T17:47:56.822Z,65.36
2022-10-12T17:50:33.200Z,65.19
2022-10-12T17:53:12.216Z,66.42
2022-10-12T17:55:58.832Z,66.69
2022-10-12T17:58:25.726Z,67.36
2022-10-12T18:00:52.316Z,68.04
2022-10-12T18:03:40.319Z,68.07
2022-10-12T18:06:19.813Z,68.44
2022-10-12T18:09:13.974Z,67.70
2022-10-12T18:11:46.390Z,68.62
2022-10-12T18:14:25.876Z,68.57
2022-10-12T18:17:24.470Z,69.54
2022-10-12T18:20:00.095Z,69.90
2022-10-12T18:26:32.938Z,70.19
2022-10-12T18:29:28.850Z,70.30
2022-10-12T18:32:03.211Z,69.99
2022-10-12T18:34:39.417Z,70.68
2022-10-12T18:37:18.003Z,71.21
2022-10-12T18:39:58.320Z,71.03
2022-10-12T18:42:43.580Z,71.91
2022-10-12T18:45:14.722Z,71.25
2022-10-12T18:47:49.311Z,71.82
2022-10-12T18:50:16.385Z,71.39
2022-10-12T18:52:46.309Z,71.99
2022-10-12T18:55:12.980Z,71.95
2022-10-12T18:57:46.155Z,71.64
2022-10-12T19:00:13.004Z,71.73
2022-10-12T19:02:39.662Z,70.98
2022-10-12T19:05:15.628Z,71.38
2022-10-12T19:07:45.193Z,71.06
2022-10-12T19:10:11.817Z,71.76
2022-10-12T19:12:42.159Z,72.10
2022-10-12T19:15:17.142Z,71.97
2022-10-12T19:18:01.075Z,72.07
2022-10-12T19:20:27.889Z,72.43
2022-10-12T19:22:54.386Z,72.08
2022-10-12T19:25:21.683Z,73.38
2022-10-12T19:27:48.121Z,71.67
2022-10-12T19:30:14.594Z,72.84
2022-10-12T19:32:42.824Z,73.67
2022-10-12T19:39:09.825Z,75.06
2022-10-12T19:41:36.373Z,75.73
2022-10-12T19:44:03.635Z,74.64
2022-10-12T19:46:30.371Z,74.11
2022-10-12T19:48:58.532Z,73.34
2022-10-12T19:51:27.165Z,73.31
2022-10-12T19:53:57.693Z,72.81
2022-10-12T19:56:24.450Z,73.55
2022-10-12T19:58:52.530Z,73.97
2022-10-12T20:01:22.409Z,74.17
2022-10-12T20:03:50.539Z,76.45
2022-10-12T20:06:18.682Z,76.60
2022-10-12T20:08:46.193Z,75.74
2022-10-12T20:11:18.933Z,75.28
2022-10-12T20:13:48.266Z,75.79
2022-10-12T20:16:17.503Z,74.91
2022-10-12T20:18:44.678Z,75.56
2022-10-12T20:21:13.643Z,75.38
2022-10-12T20:23:41.879Z,74.65
2022-10-12T20:26:12.087Z,74.60
2022-10-12T20:28:38.682Z,74.53
2022-10-12T20:31:06.746Z,75.17
2022-10-12T20:33:35.224Z,76.31
2022-10-12T20:36:02.061Z,75.91
2022-10-12T20:38:28.505Z,73.75
2022-10-12T20:41:07.174Z,73.46
2022-10-12T20:43:33.741Z,73.13
2022-10-12T20:46:05.212Z,73.02
2022-10-12T20:48:33.424Z,72.70
2022-10-12T20:51:00.464Z,72.98
2022-10-12T20:53:26.939Z,73.06
2022-10-12T20:55:53.783Z,72.56
2022-10-12T20:58:23.245Z,73.76
2022-10-12T21:01:14.546Z,74.19
2022-10-12T21:03:42.092Z,77.04
2022-10-12T21:06:11.079Z,76.99
2022-10-12T21:08:37.953Z,77.54
2022-10-12T21:11:05.103Z,76.59
2022-10-12T21:13:33.894Z,76.78
2022-10-12T21:16:00.430Z,78.50
2022-10-12T21:18:27.239Z,78.59
2022-10-12T21:20:58.631Z,78.29
2022-10-12T21:23:26.227Z,75.73
2022-10-12T21:25:53.441Z,75.80
2022-10-12T21:28:20.927Z,74.95
2022-10-12T21:30:48.098Z,74.47
2022-10-12T21:33:16.368Z,73.87
2022-10-12T21:35:43.375Z,74.49
2022-10-12T21:38:10.588Z,74.70
2022-10-12T21:40:37.076Z,74.37
2022-10-12T21:43:03.515Z,74.47
2022-10-12T21:45:30.069Z,74.04
2022-10-12T21:47:56.625Z,73.96
2022-10-12T21:50:23.127Z,74.18
2022-10-12T21:52:50.162Z,74.00
2022-10-12T21:55:17.129Z,74.60
2022-10-12T21:57:43.841Z,75.54
